createdAt,value
2022-09-28T00:00:29.154Z,98856.91
2022-09-28T00:02:57.760Z,98862.06
2022-09-28T00:05:27.147Z,98864.88
2022-09-28T00:07:54.473Z,98870.78
2022-09-28T00:10:23.225Z,98855.94
2022-09-28T00:12:50.626Z,98861.13
2022-09-28T00:15:20.590Z,98853.69
2022-09-28T00:17:47.751Z,98844.75
2022-09-28T00:20:14.723Z,98853.53
2022-09-28T00:22:41.575Z,98846.31
2022-09-28T00:25:08.945Z,98841.13
2022-09-28T00:27:35.730Z,98845.59
2022-09-28T00:30:02.604Z,98840.75
2022-09-28T00:32:30.081Z,98846.06
2022-09-28T00:34:56.937Z,98847.44
2022-09-28T00:37:23.797Z,98846.63
2022-09-28T00:39:50.760Z,98842.31
2022-09-28T00:42:21.878Z,98842.56
2022-09-28T00:44:53.717Z,98838.00
2022-09-28T00:47:26.014Z,98843.00
2022-09-28T00:50:05.950Z,98839.97
2022-09-28T00:52:53.416Z,98849.03
2022-09-28T00:55:25.876Z,98842.88
2022-09-28T00:57:56.800Z,98840.50
2022-09-28T01:00:24.634Z,98839.25
2022-09-28T01:02:51.674Z,98836.75
2022-09-28T01:05:19.157Z,98835.06
2022-09-28T01:07:46.898Z,98836.59
2022-09-28T01:10:14.356Z,98842.88
2022-09-28T01:12:41.185Z,98836.75
2022-09-28T01:15:08.566Z,98843.59
2022-09-28T01:17:44.423Z,98837.56
2022-09-28T01:20:34.444Z,98846.91
2022-09-28T01:23:30.351Z,98838.53
2022-09-28T01:26:15.274Z,98840.66
2022-09-28T01:28:44.030Z,98826.81
2022-09-28T01:31:13.726Z,98832.97
2022-09-28T01:33:44.357Z,98832.81
2022-09-28T01:36:19.608Z,98829.31
2022-09-28T01:38:55.907Z,98832.97
2022-09-28T01:41:25.297Z,98825.97
2022-09-28T01:43:55.535Z,98825.00
2022-09-28T01:46:44.964Z,98825.25
2022-09-28T01:49:31.899Z,98827.22
2022-09-28T01:52:35.343Z,98828.19
2022-09-28T01:55:16.937Z,98825.56
2022-09-28T01:58:05.092Z,98817.44
2022-09-28T02:00:32.913Z,98817.31
2022-09-28T02:03:11.091Z,98817.44
2022-09-28T02:05:56.972Z,98812.16
2022-09-28T02:08:29.272Z,98813.97
2022-09-28T02:11:13.901Z,98819.13
2022-09-28T02:13:43.427Z,98816.47
2022-09-28T02:16:21.915Z,98816.06
2022-09-28T02:18:49.893Z,98819.28
2022-09-28T02:21:24.212Z,98809.50
2022-09-28T02:24:27.800Z,98819.28
2022-09-28T02:27:00.427Z,98821.94
2022-09-28T02:29:33.005Z,98815.91
2022-09-28T02:32:00.274Z,98813.13
2022-09-28T02:34:27.092Z,98811.88
2022-09-28T02:36:54.141Z,98810.75
2022-09-28T02:39:21.028Z,98811.19
2022-09-28T02:41:54.908Z,98806.13
2022-09-28T02:44:48.490Z,98806.25
2022-09-28T02:47:28.486Z,98815.19
2022-09-28T02:50:07.107Z,98801.53
2022-09-28T02:52:49.837Z,98798.16
2022-09-28T02:55:52.137Z,98800.44
2022-09-28T02:58:55.490Z,98795.91
2022-09-28T03:01:37.232Z,98807.13
2022-09-28T03:04:23.083Z,98795.53
2022-09-28T03:07:06.360Z,98797.50
2022-09-28T03:09:52.333Z,98799.53
2022-09-28T03:12:20.629Z,98789.53
2022-09-28T03:14:47.653Z,98794.69
2022-09-28T03:17:14.775Z,98791.22
2022-09-28T03:19:42.008Z,98786.03
2022-09-28T03:22:13.140Z,98784.47
2022-09-28T03:24:40.029Z,98790.59
2022-09-28T03:27:06.868Z,98788.25
2022-09-28T03:29:34.598Z,98793.78
2022-09-28T03:32:05.104Z,98790.34
2022-09-28T03:34:31.804Z,98785.75
2022-09-28T03:36:58.716Z,98777.63
2022-09-28T03:39:30.156Z,98782.38
2022-09-28T03:42:02.663Z,98779.13
2022-09-28T03:47:58.307Z,98775.09
2022-09-28T03:50:25.215Z,98774.94
2022-09-28T03:52:51.943Z,98773.13
2022-09-28T03:55:18.897Z,98772.97
2022-09-28T03:57:59.941Z,98769.91
2022-09-28T04:00:27.688Z,98771.69
2022-09-28T04:02:55.253Z,98766.25
2022-09-28T04:05:22.119Z,98759.78
2022-09-28T04:07:48.959Z,98749.31
2022-09-28T04:10:15.756Z,98750.28
2022-09-28T04:12:42.513Z,98749.72
2022-09-28T04:15:10.299Z,98752.66
2022-09-28T04:17:40.065Z,98753.91
2022-09-28T04:20:12.876Z,98745.78
2022-09-28T04:22:48.395Z,98746.91
2022-09-28T04:25:15.717Z,98744.56
2022-09-28T04:28:01.147Z,98735.34
2022-09-28T04:30:28.047Z,98753.59
2022-09-28T04:32:54.861Z,98742.69
2022-09-28T04:35:21.726Z,98745.19
2022-09-28T04:37:48.695Z,98741.88
2022-09-28T04:40:16.092Z,98741.00
2022-09-28T04:42:43.187Z,98733.06
2022-09-28T04:45:10.563Z,98734.47
2022-09-28T04:47:41.870Z,98730.28
2022-09-28T04:50:18.218Z,98730.56
2022-09-28T04:53:03.889Z,98732.97
2022-09-28T04:55:32.661Z,98732.41
2022-09-28T04:58:04.281Z,98737.47
2022-09-28T05:00:35.323Z,98738.56
2022-09-28T05:03:09.228Z,98746.53
2022-09-28T05:05:56.323Z,98746.38
2022-09-28T05:08:38.300Z,98746.38
2022-09-28T05:11:12.200Z,98754.47
2022-09-28T05:13:41.945Z,98759.63
2022-09-28T05:16:09.570Z,98758.38
2022-09-28T05:18:58.594Z,98760.75
2022-09-28T05:21:26.676Z,98755.88
2022-09-28T05:23:56.388Z,98760.94
2022-09-28T05:26:23.875Z,98763.31
2022-09-28T05:28:51.193Z,98758.84
2022-09-28T05:31:39.858Z,98752.56
2022-09-28T05:34:18.260Z,98758.69
2022-09-28T05:36:46.171Z,98753.81
2022-09-28T05:39:13.226Z,98742.66
2022-09-28T05:41:40.135Z,98749.78
2022-09-28T05:44:07.127Z,98752.19
2022-09-28T05:46:35.255Z,98751.91
2022-09-28T05:49:02.470Z,98751.63
2022-09-28T05:51:29.418Z,98756.78
2022-09-28T05:54:05.734Z,98750.66
2022-09-28T05:56:38.293Z,98750.94
2022-09-28T05:59:07.738Z,98746.34
2022-09-28T06:01:34.672Z,98745.50
2022-09-28T06:04:02.583Z,98750.78
2022-09-28T06:06:29.559Z,98744.09
2022-09-28T06:08:56.953Z,98743.13
2022-09-28T06:11:35.896Z,98747.91
2022-09-28T06:14:09.448Z,98742.44
2022-09-28T06:16:43.591Z,98744.81
2022-09-28T06:19:12.641Z,98738.25
2022-09-28T06:21:59.808Z,98735.03
2022-09-28T06:24:27.327Z,98733.53
2022-09-28T06:26:54.149Z,98722.47
2022-09-28T06:29:21.834Z,98721.16
2022-09-28T06:31:48.578Z,98721.25
2022-09-28T06:34:15.614Z,98729.22
2022-09-28T06:36:44.404Z,98722.81
2022-09-28T06:39:11.243Z,98717.06
2022-09-28T06:41:38.151Z,98717.91
2022-09-28T06:44:14.119Z,98717.50
2022-09-28T06:46:58.779Z,98719.16
2022-09-28T06:49:41.520Z,98722.66
2022-09-28T06:52:27.201Z,98714.25
2022-09-28T06:55:24.723Z,98718.28
2022-09-28T06:57:59.890Z,98723.44
2022-09-28T07:00:28.077Z,98718.38
2022-09-28T07:02:55.435Z,98725.53
2022-09-28T07:05:46.265Z,98720.50
2022-09-28T07:08:36.562Z,98721.03
2022-09-28T07:11:27.094Z,98721.31
2022-09-28T07:14:22.607Z,98723.25
2022-09-28T07:17:12.494Z,98726.00
2022-09-28T07:19:40.480Z,98726.56
2022-09-28T07:22:08.171Z,98732.28
2022-09-28T07:24:35.382Z,98721.09
2022-09-28T07:27:23.396Z,98727.31
2022-09-28T07:30:11.907Z,98722.47
2022-09-28T07:33:04.340Z,98727.53
2022-09-28T07:35:42.320Z,98725.28
2022-09-28T07:38:13.168Z,98734.22
2022-09-28T07:40:58.877Z,98738.56
2022-09-28T07:43:26.098Z,98737.94
2022-09-28T07:45:55.069Z,98732.47
2022-09-28T07:48:25.269Z,98733.44
2022-09-28T07:51:00.251Z,98729.66
2022-09-28T07:53:32.566Z,98724.91
2022-09-28T07:56:25.984Z,98723.34
2022-09-28T07:59:04.006Z,98728.53
2022-09-28T08:01:39.673Z,98732.25
2022-09-28T08:04:09.144Z,98734.66
2022-09-28T08:06:36.844Z,98729.22
2022-09-28T08:09:05.573Z,98738.03
2022-09-28T08:12:00.672Z,98735.34
2022-09-28T08:14:48.234Z,98742.50
2022-09-28T08:17:37.657Z,98737.88
2022-09-28T08:20:27.916Z,98727.78
2022-09-28T08:22:54.870Z,98726.03
2022-09-28T08:25:22.110Z,98733.13
2022-09-28T08:27:49.847Z,98732.00
2022-09-28T08:30:20.223Z,98726.81
2022-09-28T08:33:13.962Z,98726.78
2022-09-28T08:35:44.454Z,98730.66
2022-09-28T08:38:18.560Z,98729.44
2022-09-28T08:41:31.728Z,98728.13
2022-09-28T08:44:09.227Z,98731.91
2022-09-28T08:47:00.021Z,98723.44
2022-09-28T08:49:50.679Z,98739.63
2022-09-28T08:52:35.892Z,98729.84
2022-09-28T08:55:39.130Z,98730.06
2022-09-28T08:58:13.945Z,98734.44
2022-09-28T09:00:47.457Z,98731.00
2022-09-28T09:03:21.164Z,98736.91
2022-09-28T09:06:31.488Z,98727.44
2022-09-28T09:09:33.151Z,98734.66
2022-09-28T09:12:09.193Z,98732.53
2022-09-28T09:14:44.560Z,98731.22
2022-09-28T09:17:24.841Z,98733.97
2022-09-28T09:20:41.503Z,98738.69
2022-09-28T09:23:20.452Z,98732.38
2022-09-28T09:25:55.086Z,98737.69
2022-09-28T09:28:51.824Z,98734.13
2022-09-28T09:31:43.041Z,98733.97
2022-09-28T09:34:42.699Z,98735.28
2022-09-28T09:37:58.621Z,98736.97
2022-09-28T09:41:06.478Z,98731.34
2022-09-28T09:44:26.889Z,98740.66
2022-09-28T09:47:16.519Z,98735.59
2022-09-28T09:50:05.465Z,98741.28
2022-09-28T09:52:49.557Z,98732.56
2022-09-28T09:55:29.830Z,98734.75
2022-09-28T09:58:22.632Z,98743.72
2022-09-28T10:00:59.775Z,98727.72
2022-09-28T10:03:48.343Z,98741.59
2022-09-28T10:06:20.930Z,98735.59
2022-09-28T10:09:11.325Z,98739.88
2022-09-28T10:11:44.146Z,98742.91
2022-09-28T10:14:22.611Z,98735.41
2022-09-28T10:17:01.542Z,98739.50
2022-09-28T10:19:46.949Z,98733.19
2022-09-28T10:22:44.966Z,98737.69
2022-09-28T10:25:15.874Z,98733.38
2022-09-28T10:27:47.631Z,98734.28
2022-09-28T10:30:24.460Z,98738.81
2022-09-28T10:32:55.237Z,98734.34
2022-09-28T10:35:25.867Z,98734.38
2022-09-28T10:38:15.059Z,98730.34
2022-09-28T10:40:54.519Z,98734.69
2022-09-28T10:43:38.746Z,98733.22
2022-09-28T10:46:13.602Z,98734.72
2022-09-28T10:49:18.094Z,98738.47
2022-09-28T10:51:54.812Z,98741.13
2022-09-28T10:54:27.112Z,98735.31
2022-09-28T10:56:56.786Z,98730.81
2022-09-28T10:59:39.296Z,98720.19
2022-09-28T11:02:36.020Z,98723.00
2022-09-28T11:05:30.113Z,98724.88
2022-09-28T11:08:06.714Z,98726.22
2022-09-28T11:10:41.125Z,98721.22
2022-09-28T11:13:14.033Z,98715.41
2022-09-28T11:15:44.765Z,98722.41
2022-09-28T11:18:25.962Z,98712.41
2022-09-28T11:20:53.057Z,98714.91
2022-09-28T11:23:30.317Z,98714.22
2022-09-28T11:26:06.404Z,98711.38
2022-09-28T11:28:37.639Z,98720.53
2022-09-28T11:31:12.020Z,98717.84
2022-09-28T11:34:02.747Z,98717.13
2022-09-28T11:37:00.952Z,98724.78
2022-09-28T11:39:52.674Z,98727.78
2022-09-28T11:42:44.727Z,98729.78
2022-09-28T11:45:23.952Z,98729.13
2022-09-28T11:48:02.212Z,98728.03
2022-09-28T11:50:47.928Z,98723.22
2022-09-28T11:53:25.446Z,98721.00
2022-09-28T11:56:07.937Z,98720.03
2022-09-28T11:58:40.476Z,98723.25
2022-09-28T12:01:26.137Z,98730.94
2022-09-28T12:04:16.629Z,98736.63
2022-09-28T12:06:59.989Z,98729.75
2022-09-28T12:09:37.420Z,98726.13
2022-09-28T12:12:28.504Z,98734.94
2022-09-28T12:15:00.602Z,98732.63
2022-09-28T12:17:35.594Z,98739.66
2022-09-28T12:20:05.520Z,98735.47
2022-09-28T12:22:35.484Z,98738.34
2022-09-28T12:25:04.364Z,98732.94
2022-09-28T12:27:45.387Z,98741.19
2022-09-28T12:30:13.820Z,98742.59
2022-09-28T12:32:51.133Z,98740.88
2022-09-28T12:35:33.571Z,98739.66
2022-09-28T12:38:26.684Z,98737.22
2022-09-28T12:41:11.561Z,98737.78
2022-09-28T12:43:57.177Z,98744.56
2022-09-28T12:46:51.976Z,98738.63
2022-09-28T12:50:33.289Z,98732.88
2022-09-28T12:52:29.521Z,98741.03
2022-09-28T12:55:04.059Z,98743.41
2022-09-28T12:57:48.804Z,98737.44
2022-09-28T13:00:24.983Z,98740.34
2022-09-28T13:03:13.474Z,98749.94
2022-09-28T13:05:57.656Z,98746.34
2022-09-28T13:08:33.700Z,98752.28
2022-09-28T13:11:08.995Z,98748.31
2022-09-28T13:13:49.538Z,98747.50
2022-09-28T13:16:45.076Z,98744.97
2022-09-28T13:19:18.556Z,98748.38
2022-09-28T13:22:26.301Z,98759.41
2022-09-28T13:24:55.393Z,98752.53
2022-09-28T13:27:29.565Z,98754.09
2022-09-28T13:30:00.835Z,98751.59
2022-09-28T13:32:30.067Z,98757.91
2022-09-28T13:34:57.147Z,98748.34
2022-09-28T13:37:25.689Z,98751.25
2022-09-28T13:39:57.479Z,98756.59
2022-09-28T13:42:33.649Z,98756.06
2022-09-28T13:45:18.475Z,98764.63
2022-09-28T13:47:51.779Z,98764.91
2022-09-28T13:50:30.132Z,98770.38
2022-09-28T13:53:04.175Z,98767.88
2022-09-28T13:55:55.939Z,98763.25
2022-09-28T13:58:44.796Z,98765.13
2022-09-28T14:01:14.509Z,98762.13
2022-09-28T14:03:44.764Z,98768.28
2022-09-28T14:06:27.950Z,98772.31
2022-09-28T14:09:12.097Z,98769.66
2022-09-28T14:11:53.694Z,98777.22
2022-09-28T14:14:26.178Z,98782.63
2022-09-28T14:17:21.729Z,98779.63
2022-09-28T14:20:12.765Z,98792.72
2022-09-28T14:23:01.044Z,98783.81
2022-09-28T14:25:30.911Z,98788.94
2022-09-28T14:28:19.934Z,98788.31
2022-09-28T14:30:50.099Z,98784.19
2022-09-28T14:33:27.207Z,98786.84
2022-09-28T14:35:58.753Z,98785.00
2022-09-28T14:38:53.890Z,98792.94
2022-09-28T14:41:33.863Z,98794.56
2022-09-28T14:44:08.899Z,98790.28
2022-09-28T14:46:42.307Z,98790.13
2022-09-28T14:49:19.297Z,98789.50
2022-09-28T14:51:56.199Z,98798.50
2022-09-28T14:54:25.066Z,98796.84
2022-09-28T14:56:51.883Z,98799.84
2022-09-28T14:59:22.681Z,98797.97
2022-09-28T15:02:01.199Z,98799.66
2022-09-28T15:04:30.505Z,98807.13
2022-09-28T15:07:03.696Z,98801.81
2022-09-28T15:09:35.254Z,98797.91
2022-09-28T15:12:07.760Z,98800.69
2022-09-28T15:14:40.269Z,98806.22
2022-09-28T15:17:11.665Z,98811.63
2022-09-28T15:19:46.613Z,98816.38
2022-09-28T15:22:17.303Z,98810.50
2022-09-28T15:25:02.188Z,98819.75
2022-09-28T15:27:37.748Z,98818.88
2022-09-28T15:30:23.613Z,98826.69
2022-09-28T15:32:50.591Z,98829.41
2022-09-28T15:35:35.861Z,98832.16
2022-09-28T15:38:04.287Z,98824.84
2022-09-28T15:40:35.476Z,98829.66
2022-09-28T15:43:02.597Z,98830.84
2022-09-28T15:45:35.120Z,98827.81
2022-09-28T15:48:27.383Z,98828.81
2022-09-28T15:51:17.672Z,98835.81
2022-09-28T15:53:50.738Z,98834.34
2022-09-28T15:56:17.487Z,98837.69
2022-09-28T15:58:44.309Z,98837.63
2022-09-28T16:01:31.105Z,98837.22
2022-09-28T16:03:58.073Z,98843.91
2022-09-28T16:06:25.047Z,98846.97
2022-09-28T16:08:51.898Z,98847.94
2022-09-28T16:11:27.551Z,98855.69
2022-09-28T16:14:17.673Z,98861.03
2022-09-28T16:16:47.414Z,98861.38
2022-09-28T16:19:24.251Z,98856.94
2022-09-28T16:22:00.216Z,98861.84
2022-09-28T16:24:32.774Z,98859.19
2022-09-28T16:27:05.006Z,98865.19
2022-09-28T16:29:42.211Z,98864.94
2022-09-28T16:32:27.282Z,98868.06
2022-09-28T16:35:18.763Z,98876.31
2022-09-28T16:37:47.263Z,98869.31
2022-09-28T16:40:14.025Z,98880.38
2022-09-28T16:42:48.666Z,98879.97
2022-09-28T16:45:23.921Z,98876.59
2022-09-28T16:47:53.645Z,98876.84
2022-09-28T16:50:21.466Z,98884.81
2022-09-28T16:53:28.135Z,98884.41
2022-09-28T16:55:54.992Z,98884.72
2022-09-28T16:58:22.411Z,98887.84
2022-09-28T17:00:49.110Z,98890.63
2022-09-28T17:03:18.643Z,98897.78
2022-09-28T17:05:46.644Z,98899.88
2022-09-28T17:08:17.507Z,98900.56
2022-09-28T17:11:12.889Z,98901.03
2022-09-28T17:13:37.967Z,98901.69
2022-09-28T17:16:18.021Z,98896.81
2022-09-28T17:18:46.094Z,98907.16
2022-09-28T17:21:15.944Z,98910.22
2022-09-28T17:23:44.210Z,98900.81
2022-09-28T17:26:19.221Z,98915.53
2022-09-28T17:28:46.474Z,98912.06
2022-09-28T17:31:27.024Z,98914.72
2022-09-28T17:33:54.647Z,98916.16
2022-09-28T17:36:27.145Z,98912.63
2022-09-28T17:38:53.963Z,98927.56
2022-09-28T17:41:21.278Z,98917.09
2022-09-28T17:43:49.013Z,98922.28
2022-09-28T17:46:30.415Z,98920.00
2022-09-28T17:49:01.620Z,98926.19
2022-09-28T17:51:35.027Z,98922.06
2022-09-28T17:54:02.261Z,98922.72
2022-09-28T17:56:32.109Z,98923.84
2022-09-28T17:59:04.944Z,98924.41
2022-09-28T18:01:34.737Z,98925.69
2022-09-28T18:04:03.628Z,98929.44
2022-09-28T18:06:33.714Z,98925.44
2022-09-28T18:09:02.929Z,98932.59
2022-09-28T18:11:30.754Z,98933.16
2022-09-28T18:13:57.697Z,98930.69
2022-09-28T18:16:25.078Z,98929.41
2022-09-28T18:18:52.050Z,98936.66
2022-09-28T18:21:18.927Z,98939.16
2022-09-28T18:23:45.826Z,98949.03
2022-09-28T18:26:14.042Z,98948.22
2022-09-28T18:28:41.116Z,98954.34
2022-09-28T18:31:09.687Z,98958.84
2022-09-28T18:33:37.018Z,98965.53
2022-09-28T18:36:05.061Z,98961.94
2022-09-28T18:38:32.401Z,98969.16
2022-09-28T18:41:16.782Z,98974.25
2022-09-28T18:43:49.169Z,98979.97
2022-09-28T18:46:18.299Z,98981.84
2022-09-28T18:48:48.009Z,98977.84
2022-09-28T18:51:15.267Z,98980.59
2022-09-28T18:53:42.161Z,98987.69
2022-09-28T18:56:11.106Z,98992.44
2022-09-28T18:58:39.163Z,98989.06
2022-09-28T19:01:28.917Z,98984.72
2022-09-28T19:03:59.451Z,98985.16
2022-09-28T19:06:26.160Z,98988.34
2022-09-28T19:08:53.967Z,98996.50
2022-09-28T19:11:20.741Z,98991.00
2022-09-28T19:13:48.158Z,98986.97
2022-09-28T19:16:21.082Z,98990.06
2022-09-28T19:18:48.065Z,98982.94
2022-09-28T19:21:16.233Z,98987.00
2022-09-28T19:23:48.972Z,98993.41
2022-09-28T19:26:18.993Z,98986.72
2022-09-28T19:28:45.825Z,98995.44
2022-09-28T19:31:13.212Z,98989.88
2022-09-28T19:33:41.185Z,98987.53
2022-09-28T19:36:10.412Z,99006.22
2022-09-28T19:38:38.417Z,99000.94
2022-09-28T19:41:10.118Z,99002.84
2022-09-28T19:43:37.285Z,99008.88
2022-09-28T19:46:08.391Z,99008.28
2022-09-28T19:48:35.605Z,99018.38
2022-09-28T19:51:07.444Z,99018.06
2022-09-28T19:53:38.621Z,99021.84
2022-09-28T19:56:05.720Z,99009.81
2022-09-28T19:58:35.204Z,99019.84
2022-09-28T20:01:06.647Z,99018.88
2022-09-28T20:03:34.587Z,99019.91
2022-09-28T20:06:04.832Z,99023.41
2022-09-28T20:08:31.561Z,99018.06
2022-09-28T20:11:00.051Z,99021.94
2022-09-28T20:13:32.017Z,99021.31
2022-09-28T20:16:14.683Z,99022.25
2022-09-28T20:18:44.491Z,99025.69
2022-09-28T20:21:18.137Z,99034.81
2022-09-28T20:23:45.876Z,99028.91
2022-09-28T20:26:13.312Z,99032.00
2022-09-28T20:28:40.966Z,99034.22
2022-09-28T20:31:14.005Z,99039.16
2022-09-28T20:33:42.788Z,99038.50
2022-09-28T20:36:12.039Z,99035.03
2022-09-28T20:38:40.637Z,99046.47
2022-09-28T20:41:08.640Z,99052.66
2022-09-28T20:43:35.433Z,99051.78
2022-09-28T20:46:03.294Z,99053.69
2022-09-28T20:48:30.505Z,99055.78
2022-09-28T20:51:03.043Z,99054.00
2022-09-28T20:53:30.638Z,99051.84
2022-09-28T20:56:06.312Z,99055.63
2022-09-28T20:58:33.437Z,99052.41
2022-09-28T21:01:12.544Z,99053.56
2022-09-28T21:03:39.654Z,99063.31
2022-09-28T21:06:12.302Z,99069.50
2022-09-28T21:08:39.155Z,99059.88
2022-09-28T21:11:07.338Z,99070.09
2022-09-28T21:13:34.156Z,99067.16
2022-09-28T21:16:02.181Z,99067.72
2022-09-28T21:18:31.577Z,99074.97
2022-09-28T21:20:58.355Z,99074.66
2022-09-28T21:23:25.264Z,99077.59
2022-09-28T21:26:03.884Z,99084.00
2022-09-28T21:28:30.583Z,99080.28
2022-09-28T21:30:57.497Z,99083.31
2022-09-28T21:33:24.287Z,99082.66
2022-09-28T21:35:51.070Z,99088.25
2022-09-28T21:38:17.776Z,99093.88
2022-09-28T21:40:44.506Z,99084.19
2022-09-28T21:43:11.448Z,99092.66
2022-09-28T21:45:38.833Z,99091.38
2022-09-28T21:48:05.653Z,99090.16
2022-09-28T21:50:32.707Z,99092.19
2022-09-28T21:53:00.589Z,99090.06
2022-09-28T21:55:27.421Z,99096.25
2022-09-28T21:57:54.150Z,99100.59
2022-09-28T22:00:23.376Z,99099.53
2022-09-28T22:02:53.339Z,99100.88
2022-09-28T22:05:20.202Z,99109.34
2022-09-28T22:07:47.265Z,99099.44
2022-09-28T22:10:15.163Z,99098.28
2022-09-28T22:12:42.134Z,99099.19
2022-09-28T22:15:11.430Z,99099.28
2022-09-28T22:17:38.212Z,99104.03
2022-09-28T22:20:05.585Z,99096.31
2022-09-28T22:22:32.425Z,99103.94
2022-09-28T22:24:59.194Z,99100.13
2022-09-28T22:27:25.987Z,99095.25
2022-09-28T22:29:52.669Z,99109.56
2022-09-28T22:32:19.410Z,99107.47
2022-09-28T22:34:46.248Z,99111.22
2022-09-28T22:37:12.971Z,99109.81
2022-09-28T22:39:41.179Z,99107.13
2022-09-28T22:42:08.437Z,99113.69
2022-09-28T22:44:35.940Z,99104.88
2022-09-28T22:47:03.331Z,99117.31
2022-09-28T22:49:32.813Z,99112.16
2022-09-28T22:51:59.583Z,99112.16
2022-09-28T22:54:26.332Z,99120.25
2022-09-28T22:56:53.111Z,99114.16
2022-09-28T22:59:19.956Z,99124.03
2022-09-28T23:01:47.105Z,99126.78
2022-09-28T23:04:13.917Z,99119.97
2022-09-28T23:06:41.350Z,99121.16
2022-09-28T23:09:08.323Z,99119.09
2022-09-28T23:11:35.070Z,99116.19
2022-09-28T23:14:01.784Z,99131.03
2022-09-28T23:16:30.091Z,99126.69
2022-09-28T23:18:57.167Z,99124.22
2022-09-28T23:21:26.060Z,99129.16
2022-09-28T23:23:54.873Z,99120.19
2022-09-28T23:26:24.356Z,99129.28
2022-09-28T23:28:51.799Z,99118.13
2022-09-28T23:31:21.731Z,99118.00
2022-09-28T23:33:48.991Z,99113.41
2022-09-28T23:36:16.625Z,99122.75
2022-09-28T23:38:43.541Z,99113.47
2022-09-28T23:41:10.699Z,99116.69
2022-09-28T23:43:37.441Z,99113.00
2022-09-28T23:46:05.209Z,99116.34
2022-09-28T23:48:32.468Z,99120.66
2022-09-28T23:50:59.271Z,99117.63
2022-09-28T23:53:26.365Z,99116.81
2022-09-28T23:55:53.166Z,99112.59
2022-09-28T23:58:20.009Z,99123.44
